createdAt,value
2023-03-21T00:00:43.226Z,8.90
2023-03-21T00:03:10.403Z,8.90
2023-03-21T00:05:45.749Z,8.90
2023-03-21T00:08:12.693Z,8.90
2023-03-21T00:10:41.199Z,8.90
2023-03-21T00:13:14.794Z,8.90
2023-03-21T00:16:05.811Z,8.80
2023-03-21T00:18:36.840Z,8.90
2023-03-21T00:21:37.577Z,8.90
2023-03-21T00:23:51.807Z,8.90
2023-03-21T00:26:18.594Z,8.90
2023-03-21T00:28:45.766Z,8.90
2023-03-21T00:31:12.943Z,8.90
2023-03-21T00:33:39.887Z,8.90
2023-03-21T00:36:07.641Z,8.90
2023-03-21T00:38:34.770Z,8.90
2023-03-21T00:41:18.918Z,8.90
2023-03-21T00:43:47.940Z,8.90
2023-03-21T00:46:16.828Z,8.90
2023-03-21T00:48:43.579Z,8.90
2023-03-21T00:51:26.650Z,8.90
2023-03-21T00:53:55.752Z,8.90
2023-03-21T00:56:22.712Z,8.90
2023-03-21T00:58:51.337Z,8.90
2023-03-21T01:01:18.773Z,8.90
2023-03-21T01:03:48.063Z,8.90
2023-03-21T01:06:19.222Z,8.90
2023-03-21T01:08:54.231Z,8.90
2023-03-21T01:11:24.693Z,8.90
2023-03-21T01:13:57.942Z,8.90
2023-03-21T01:16:29.008Z,8.90
2023-03-21T01:18:57.652Z,8.90
2023-03-21T01:21:24.530Z,8.90
2023-03-21T01:23:51.814Z,8.90
2023-03-21T01:26:18.983Z,8.90
2023-03-21T01:28:45.846Z,8.90
2023-03-21T01:31:13.869Z,8.90
2023-03-21T01:33:40.873Z,8.90
2023-03-21T01:36:13.307Z,8.90
2023-03-21T01:38:41.953Z,8.90
2023-03-21T01:41:33.610Z,9.00
2023-03-21T01:44:11.273Z,9.00
2023-03-21T01:49:57.777Z,9.00
2023-03-21T01:52:38.296Z,9.00
2023-03-21T01:55:16.135Z,9.00
2023-03-21T01:58:14.112Z,9.00
2023-03-21T02:00:51.217Z,9.00
2023-03-21T02:03:36.052Z,9.00
2023-03-21T02:06:36.694Z,9.00
2023-03-21T02:09:13.623Z,9.00
2023-03-21T02:11:46.453Z,9.00
2023-03-21T02:14:26.747Z,9.00
2023-03-21T02:17:04.304Z,9.00
2023-03-21T02:19:53.401Z,9.00
2023-03-21T02:22:42.475Z,9.00
2023-03-21T02:25:28.493Z,9.00
2023-03-21T02:28:01.826Z,9.00
2023-03-21T02:30:33.549Z,9.00
2023-03-21T02:33:19.588Z,9.00
2023-03-21T02:35:54.212Z,9.00
2023-03-21T02:38:22.880Z,9.00
2023-03-21T02:40:55.448Z,9.00
2023-03-21T02:43:39.110Z,9.00
2023-03-21T02:46:10.331Z,9.00
2023-03-21T02:48:50.114Z,9.00
2023-03-21T02:51:19.341Z,9.00
2023-03-21T02:53:53.302Z,9.00
2023-03-21T02:56:23.488Z,9.00
2023-03-21T02:58:54.410Z,9.00
2023-03-21T03:01:21.541Z,9.00
2023-03-21T03:03:49.142Z,9.00
2023-03-21T03:06:20.731Z,9.00
2023-03-21T03:09:01.764Z,9.00
2023-03-21T03:11:37.849Z,9.00
2023-03-21T03:14:25.080Z,9.00
2023-03-21T03:16:56.272Z,9.00
2023-03-21T03:19:27.619Z,9.00
2023-03-21T03:22:03.904Z,9.00
2023-03-21T03:24:36.941Z,9.10
2023-03-21T03:27:13.294Z,9.10
2023-03-21T03:29:41.856Z,9.10
2023-03-21T03:32:16.109Z,9.10
2023-03-21T03:34:50.796Z,9.10
2023-03-21T03:37:23.310Z,9.10
2023-03-21T03:40:05.163Z,9.10
2023-03-21T03:42:36.716Z,9.10
2023-03-21T03:45:14.002Z,9.10
2023-03-21T03:47:57.033Z,9.10
2023-03-21T03:50:27.325Z,9.10
2023-03-21T03:52:59.804Z,9.10
2023-03-21T03:55:35.302Z,9.10
2023-03-21T03:58:21.770Z,9.10
2023-03-21T04:00:51.419Z,9.10
2023-03-21T04:03:19.317Z,9.10
2023-03-21T04:05:46.384Z,9.10
2023-03-21T04:08:15.378Z,9.10
2023-03-21T04:10:45.812Z,9.10
2023-03-21T04:13:13.758Z,9.10
2023-03-21T04:16:00.989Z,9.10
2023-03-21T04:18:28.072Z,9.10
2023-03-21T04:20:54.873Z,9.20
2023-03-21T04:23:21.752Z,9.10
2023-03-21T04:25:56.852Z,9.20
2023-03-21T04:28:33.734Z,9.20
2023-03-21T04:31:34.064Z,9.20
2023-03-21T04:34:10.553Z,9.20
2023-03-21T04:36:46.677Z,9.20
2023-03-21T04:39:14.857Z,9.20
2023-03-21T04:41:44.445Z,9.20
2023-03-21T04:44:12.175Z,9.20
2023-03-21T04:46:39.879Z,9.20
2023-03-21T04:49:07.777Z,9.20
2023-03-21T04:51:35.503Z,9.20
2023-03-21T04:54:03.441Z,9.20
2023-03-21T04:56:34.062Z,9.20
2023-03-21T04:59:03.472Z,9.20
2023-03-21T05:01:30.904Z,9.20
2023-03-21T05:03:58.567Z,9.20
2023-03-21T05:06:26.557Z,9.20
2023-03-21T05:08:54.454Z,9.20
2023-03-21T05:11:21.373Z,9.20
2023-03-21T05:13:48.435Z,9.20
2023-03-21T05:16:15.396Z,9.20
2023-03-21T05:18:44.523Z,9.20
2023-03-21T05:21:18.507Z,9.20
2023-03-21T05:23:54.866Z,9.20
2023-03-21T05:26:23.227Z,9.20
2023-03-21T05:29:10.042Z,9.20
2023-03-21T05:31:38.202Z,9.20
2023-03-21T05:34:09.750Z,9.20
2023-03-21T05:36:37.428Z,9.30
2023-03-21T05:39:07.266Z,9.30
2023-03-21T05:41:37.583Z,9.30
2023-03-21T05:44:05.966Z,9.30
2023-03-21T05:46:32.827Z,9.30
2023-03-21T05:49:00.890Z,9.30
2023-03-21T05:51:27.845Z,9.30
2023-03-21T05:53:55.663Z,9.30
2023-03-21T05:56:22.432Z,9.30
2023-03-21T05:58:56.385Z,9.30
2023-03-21T06:01:24.311Z,9.30
2023-03-21T06:03:58.788Z,9.30
2023-03-21T06:06:28.227Z,9.30
2023-03-21T06:08:57.121Z,9.30
2023-03-21T06:11:30.199Z,9.30
2023-03-21T06:14:29.479Z,9.30
2023-03-21T06:17:14.973Z,9.30
2023-03-21T06:19:47.812Z,9.30
2023-03-21T06:22:35.309Z,9.30
2023-03-21T06:25:03.852Z,9.30
2023-03-21T06:27:30.736Z,9.30
2023-03-21T06:30:00.531Z,9.30
2023-03-21T06:32:31.890Z,9.40
2023-03-21T06:35:32.240Z,9.40
2023-03-21T06:38:00.465Z,9.40
2023-03-21T06:40:38.395Z,9.40
2023-03-21T06:43:06.057Z,9.40
2023-03-21T06:45:44.609Z,9.50
2023-03-21T06:48:12.012Z,9.50
2023-03-21T06:50:48.175Z,9.50
2023-03-21T06:53:16.126Z,9.50
2023-03-21T06:56:06.174Z,9.50
2023-03-21T06:58:34.308Z,9.50
2023-03-21T07:01:03.070Z,9.50
2023-03-21T07:03:32.881Z,9.50
2023-03-21T07:06:09.702Z,9.50
2023-03-21T07:08:38.799Z,9.50
2023-03-21T07:11:08.555Z,9.50
2023-03-21T07:13:38.442Z,9.50
2023-03-21T07:16:05.728Z,9.60
2023-03-21T07:18:32.771Z,9.60
2023-03-21T07:21:05.840Z,9.50
2023-03-21T07:23:38.198Z,9.50
2023-03-21T07:26:07.889Z,9.50
2023-03-21T07:28:37.781Z,9.50
2023-03-21T07:31:07.179Z,9.50
2023-03-21T07:33:37.747Z,9.60
2023-03-21T07:36:09.202Z,9.60
2023-03-21T07:38:36.334Z,9.60
2023-03-21T07:41:09.320Z,9.70
2023-03-21T07:43:37.221Z,9.60
2023-03-21T07:46:10.456Z,9.70
2023-03-21T07:48:38.052Z,9.70
2023-03-21T07:51:06.568Z,9.60
2023-03-21T07:53:35.414Z,9.70
2023-03-21T07:56:02.554Z,9.70
2023-03-21T07:58:29.452Z,9.70
2023-03-21T08:00:58.542Z,9.70
2023-03-21T08:03:29.215Z,9.70
2023-03-21T08:05:56.451Z,9.70
2023-03-21T08:08:23.948Z,9.70
2023-03-21T08:10:50.846Z,9.70
2023-03-21T08:13:17.974Z,9.80
2023-03-21T08:15:44.989Z,9.80
2023-03-21T08:18:12.003Z,9.80
2023-03-21T08:20:39.016Z,9.80
2023-03-21T08:23:06.004Z,9.80
2023-03-21T08:25:33.390Z,9.90
2023-03-21T08:28:00.954Z,9.90
2023-03-21T08:30:28.513Z,9.90
2023-03-21T08:33:01.155Z,9.90
2023-03-21T08:35:29.314Z,9.90
2023-03-21T08:37:56.290Z,9.90
2023-03-21T08:40:23.135Z,9.90
2023-03-21T08:42:49.920Z,9.90
2023-03-21T08:45:17.653Z,10.00
2023-03-21T08:47:44.599Z,10.00
2023-03-21T08:50:12.418Z,10.00
2023-03-21T08:52:39.198Z,10.00
2023-03-21T08:55:09.853Z,10.00
2023-03-21T08:57:36.833Z,10.10
2023-03-21T09:00:09.836Z,10.10
2023-03-21T09:02:36.862Z,10.10
2023-03-21T09:05:06.020Z,10.10
2023-03-21T09:07:35.189Z,10.20
2023-03-21T09:10:19.661Z,10.10
2023-03-21T09:12:48.481Z,10.20
2023-03-21T09:15:15.491Z,10.20
2023-03-21T09:17:43.881Z,10.20
2023-03-21T09:20:18.018Z,10.20
2023-03-21T09:22:46.619Z,10.20
2023-03-21T09:25:15.332Z,10.30
2023-03-21T09:27:44.865Z,10.30
2023-03-21T09:30:16.277Z,10.30
2023-03-21T09:32:48.579Z,10.40
2023-03-21T09:35:17.089Z,10.40
2023-03-21T09:37:43.946Z,10.40
2023-03-21T09:40:16.182Z,10.40
2023-03-21T09:42:48.208Z,10.40
2023-03-21T09:45:18.771Z,10.40
2023-03-21T09:47:53.739Z,10.40
2023-03-21T09:50:27.083Z,10.40
2023-03-21T09:52:57.300Z,10.40
2023-03-21T09:55:26.468Z,10.50
2023-03-21T09:58:05.703Z,10.50
2023-03-21T10:00:38.767Z,10.50
2023-03-21T10:03:11.398Z,10.50
2023-03-21T10:05:40.621Z,10.50
2023-03-21T10:08:07.498Z,10.60
2023-03-21T10:10:37.618Z,10.60
2023-03-21T10:13:06.660Z,10.60
2023-03-21T10:15:33.476Z,10.70
2023-03-21T10:18:06.192Z,10.60
2023-03-21T10:20:34.702Z,10.60
2023-03-21T10:23:03.281Z,10.70
2023-03-21T10:25:32.820Z,10.60
2023-03-21T10:28:00.551Z,10.70
2023-03-21T10:30:46.137Z,10.70
2023-03-21T10:33:18.376Z,10.70
2023-03-21T10:35:46.484Z,10.70
2023-03-21T10:38:16.474Z,10.70
2023-03-21T10:40:43.660Z,10.70
2023-03-21T10:43:20.711Z,10.80
2023-03-21T10:45:48.365Z,10.80
2023-03-21T10:48:15.649Z,10.70
2023-03-21T10:50:43.283Z,10.60
2023-03-21T10:53:15.732Z,10.70
2023-03-21T10:55:43.096Z,10.60
2023-03-21T10:58:18.721Z,10.70
2023-03-21T11:00:46.483Z,10.70
2023-03-21T11:06:28.353Z,10.70
2023-03-21T11:08:56.582Z,10.70
2023-03-21T11:11:49.673Z,10.70
2023-03-21T11:14:26.677Z,10.80
2023-03-21T11:16:57.692Z,10.80
2023-03-21T11:19:32.390Z,10.80
2023-03-21T11:21:59.910Z,10.80
2023-03-21T11:24:29.163Z,10.80
2023-03-21T11:26:56.680Z,10.80
2023-03-21T11:29:31.458Z,10.90
2023-03-21T11:32:02.542Z,10.80
2023-03-21T11:34:58.935Z,10.90
2023-03-21T11:37:27.564Z,10.80
2023-03-21T11:39:55.298Z,10.80
2023-03-21T11:42:26.400Z,10.80
2023-03-21T11:44:58.285Z,10.80
2023-03-21T11:47:25.296Z,10.80
2023-03-21T11:49:58.371Z,10.80
2023-03-21T11:52:43.525Z,10.90
2023-03-21T11:55:10.675Z,11.00
2023-03-21T11:57:37.512Z,11.00
2023-03-21T12:00:10.639Z,11.00
2023-03-21T12:02:56.081Z,11.00
2023-03-21T12:05:26.600Z,11.00
2023-03-21T12:08:02.821Z,11.00
2023-03-21T12:10:39.560Z,11.10
2023-03-21T12:13:06.458Z,11.10
2023-03-21T12:15:40.076Z,11.10
2023-03-21T12:18:36.551Z,11.10
2023-03-21T12:21:03.317Z,11.10
2023-03-21T12:23:30.315Z,11.10
2023-03-21T12:26:03.238Z,11.10
2023-03-21T12:28:39.167Z,11.10
2023-03-21T12:31:21.282Z,11.10
2023-03-21T12:33:48.693Z,11.10
2023-03-21T12:36:36.230Z,11.10
2023-03-21T12:39:21.817Z,11.00
2023-03-21T12:42:11.961Z,11.00
2023-03-21T12:44:45.994Z,11.00
2023-03-21T12:47:27.063Z,11.00
2023-03-21T12:49:57.900Z,11.00
2023-03-21T12:52:30.611Z,11.10
2023-03-21T12:55:09.720Z,11.10
2023-03-21T12:57:47.714Z,11.10
2023-03-21T13:00:18.584Z,11.20
2023-03-21T13:02:54.464Z,11.10
2023-03-21T13:05:31.808Z,11.10
2023-03-21T13:08:04.734Z,11.10
2023-03-21T13:10:32.538Z,11.20
2023-03-21T13:13:02.544Z,11.10
2023-03-21T13:15:29.276Z,11.10
2023-03-21T13:18:06.504Z,11.10
2023-03-21T13:20:47.735Z,11.20
2023-03-21T13:23:14.653Z,11.20
2023-03-21T13:25:43.201Z,11.20
2023-03-21T13:28:16.803Z,11.10
2023-03-21T13:30:43.590Z,11.10
2023-03-21T13:33:14.205Z,11.10
2023-03-21T13:35:43.170Z,11.10
2023-03-21T13:38:18.345Z,11.20
2023-03-21T13:40:59.008Z,11.20
2023-03-21T13:43:44.716Z,11.20
2023-03-21T13:46:46.706Z,11.20
2023-03-21T13:49:47.368Z,11.20
2023-03-21T13:52:18.249Z,11.20
2023-03-21T13:54:50.956Z,11.20
2023-03-21T13:57:27.195Z,11.20
2023-03-21T14:00:14.011Z,11.20
2023-03-21T14:02:50.383Z,11.20
2023-03-21T14:05:20.031Z,11.20
2023-03-21T14:07:49.841Z,11.20
2023-03-21T14:10:29.538Z,11.20
2023-03-21T14:12:57.108Z,11.20
2023-03-21T14:15:27.591Z,11.20
2023-03-21T14:17:56.168Z,11.20
2023-03-21T14:20:26.076Z,11.10
2023-03-21T14:22:54.299Z,11.20
2023-03-21T14:25:27.166Z,11.10
2023-03-21T14:28:01.208Z,11.20
2023-03-21T14:30:28.019Z,11.20
2023-03-21T14:32:56.959Z,11.20
2023-03-21T14:35:26.740Z,11.20
2023-03-21T14:37:53.769Z,11.20
2023-03-21T14:40:22.875Z,11.20
2023-03-21T14:42:50.548Z,11.20
2023-03-21T14:45:28.044Z,11.20
2023-03-21T14:48:17.481Z,11.20
2023-03-21T14:50:47.492Z,11.10
2023-03-21T14:53:20.694Z,11.10
2023-03-21T14:55:54.469Z,11.20
2023-03-21T14:58:21.481Z,11.20
2023-03-21T15:00:50.421Z,11.20
2023-03-21T15:03:18.455Z,11.20
2023-03-21T15:05:45.821Z,11.20
2023-03-21T15:08:12.636Z,11.20
2023-03-21T15:10:39.774Z,11.20
2023-03-21T15:13:18.681Z,11.20
2023-03-21T15:15:46.229Z,11.20
2023-03-21T15:18:16.145Z,11.30
2023-03-21T15:20:43.317Z,11.30
2023-03-21T15:23:13.240Z,11.30
2023-03-21T15:25:40.976Z,11.30
2023-03-21T15:28:08.098Z,11.20
2023-03-21T15:30:35.247Z,11.20
2023-03-21T15:33:06.693Z,11.10
2023-03-21T15:35:38.012Z,11.20
2023-03-21T15:38:06.823Z,11.20
2023-03-21T15:40:34.961Z,11.20
2023-03-21T15:43:07.370Z,11.30
2023-03-21T15:45:45.740Z,11.20
2023-03-21T15:48:14.014Z,11.20
2023-03-21T15:50:49.779Z,11.20
2023-03-21T15:53:18.982Z,11.20
2023-03-21T15:55:52.577Z,11.10
2023-03-21T15:58:24.516Z,11.10
2023-03-21T16:00:55.515Z,11.10
2023-03-21T16:03:27.603Z,11.10
2023-03-21T16:06:15.003Z,11.00
2023-03-21T16:08:46.896Z,11.00
2023-03-21T16:11:22.899Z,11.00
2023-03-21T16:13:50.358Z,11.00
2023-03-21T16:16:17.669Z,10.90
2023-03-21T16:18:44.726Z,11.00
2023-03-21T16:21:15.912Z,11.00
2023-03-21T16:23:42.921Z,10.90
2023-03-21T16:26:11.808Z,10.90
2023-03-21T16:28:38.684Z,11.00
2023-03-21T16:31:05.630Z,11.00
2023-03-21T16:33:32.660Z,11.00
2023-03-21T16:36:00.753Z,11.00
2023-03-21T16:38:27.932Z,10.90
2023-03-21T16:40:54.808Z,10.90
2023-03-21T16:43:21.718Z,11.00
2023-03-21T16:45:48.602Z,11.00
2023-03-21T16:48:17.544Z,11.00
2023-03-21T16:50:47.117Z,10.90
2023-03-21T16:53:14.085Z,10.90
2023-03-21T16:55:41.029Z,10.90
2023-03-21T16:58:07.873Z,10.90
2023-03-21T17:00:34.794Z,10.90
2023-03-21T17:03:02.447Z,10.90
2023-03-21T17:05:32.789Z,10.80
2023-03-21T17:08:06.421Z,10.80
2023-03-21T17:10:33.444Z,10.80
2023-03-21T17:13:00.465Z,10.80
2023-03-21T17:15:27.230Z,10.80
2023-03-21T17:17:55.652Z,10.80
2023-03-21T17:20:27.035Z,10.80
2023-03-21T17:22:53.829Z,10.80
2023-03-21T17:25:21.199Z,10.80
2023-03-21T17:27:48.469Z,10.80
2023-03-21T17:30:25.804Z,10.80
2023-03-21T17:32:52.768Z,10.70
2023-03-21T17:35:20.248Z,10.70
2023-03-21T17:37:53.060Z,10.70
2023-03-21T17:40:24.626Z,10.70
2023-03-21T17:42:51.662Z,10.70
2023-03-21T17:45:18.587Z,10.70
2023-03-21T17:47:45.438Z,10.60
2023-03-21T17:50:14.208Z,10.60
2023-03-21T17:52:42.881Z,10.70
2023-03-21T17:55:09.756Z,10.60
2023-03-21T17:57:37.752Z,10.60
2023-03-21T18:00:10.739Z,10.60
2023-03-21T18:02:39.912Z,10.60
2023-03-21T18:05:07.189Z,10.60
2023-03-21T18:08:05.903Z,10.60
2023-03-21T18:10:23.703Z,10.60
2023-03-21T18:12:52.740Z,10.60
2023-03-21T18:15:20.876Z,10.60
2023-03-21T18:17:47.899Z,10.60
2023-03-21T18:20:17.011Z,10.60
2023-03-21T18:22:44.274Z,10.50
2023-03-21T18:25:11.367Z,10.50
2023-03-21T18:28:02.121Z,10.50
2023-03-21T18:30:50.158Z,10.50
2023-03-21T18:33:14.925Z,10.50
2023-03-21T18:35:45.206Z,10.60
2023-03-21T18:38:12.264Z,10.50
2023-03-21T18:40:43.367Z,10.50
2023-03-21T18:43:58.452Z,10.50
2023-03-21T18:46:00.269Z,10.60
2023-03-21T18:48:27.198Z,10.60
2023-03-21T18:50:54.181Z,10.60
2023-03-21T18:53:22.504Z,10.60
2023-03-21T18:55:53.512Z,10.60
2023-03-21T18:58:21.323Z,10.60
2023-03-21T19:00:54.324Z,10.60
2023-03-21T19:03:35.159Z,10.50
2023-03-21T19:06:07.687Z,10.60
2023-03-21T19:08:41.823Z,10.50
2023-03-21T19:11:10.189Z,10.50
2023-03-21T19:13:38.861Z,10.60
2023-03-21T19:16:10.656Z,10.60
2023-03-21T19:18:53.470Z,10.50
2023-03-21T19:21:27.381Z,10.60
2023-03-21T19:26:44.844Z,10.60
2023-03-21T19:29:14.938Z,10.60
2023-03-21T19:31:44.973Z,10.50
2023-03-21T19:34:13.912Z,10.50
2023-03-21T19:36:46.018Z,10.50
2023-03-21T19:39:21.938Z,10.50
2023-03-21T19:41:48.954Z,10.50
2023-03-21T19:44:16.524Z,10.50
2023-03-21T19:46:43.743Z,10.50
2023-03-21T19:49:11.107Z,10.50
2023-03-21T19:51:38.086Z,10.50
2023-03-21T19:54:06.182Z,10.60
2023-03-21T19:56:38.662Z,10.50
2023-03-21T19:59:08.299Z,10.60
2023-03-21T20:01:35.692Z,10.60
2023-03-21T20:04:02.827Z,10.60
2023-03-21T20:06:32.690Z,10.60
2023-03-21T20:11:46.951Z,10.60
2023-03-21T20:14:14.008Z,10.60
2023-03-21T20:16:43.640Z,10.60
2023-03-21T20:19:12.764Z,10.60
2023-03-21T20:21:49.121Z,10.60
2023-03-21T20:24:20.305Z,10.60
2023-03-21T20:26:53.617Z,10.60
2023-03-21T20:30:07.585Z,10.60
2023-03-21T20:32:08.851Z,10.60
2023-03-21T20:34:37.025Z,10.60
2023-03-21T20:37:06.276Z,10.60
2023-03-21T20:39:34.729Z,10.60
2023-03-21T20:42:09.279Z,10.60
2023-03-21T20:47:25.428Z,10.60
2023-03-21T20:49:52.379Z,10.70
2023-03-21T20:55:09.059Z,10.60
2023-03-21T20:57:38.806Z,10.60
2023-03-21T21:00:13.415Z,10.60
2023-03-21T21:02:41.460Z,10.60
2023-03-21T21:05:27.439Z,10.60
2023-03-21T21:07:58.946Z,10.60
2023-03-21T21:10:26.247Z,10.60
2023-03-21T21:12:53.206Z,10.60
2023-03-21T21:15:22.238Z,10.60
2023-03-21T21:18:05.525Z,10.60
2023-03-21T21:20:45.224Z,10.60
2023-03-21T21:23:13.585Z,10.60
2023-03-21T21:25:42.651Z,10.60
2023-03-21T21:28:15.082Z,10.60
2023-03-21T21:30:44.076Z,10.60
2023-03-21T21:33:14.606Z,10.60
2023-03-21T21:35:48.911Z,10.60
2023-03-21T21:44:03.563Z,10.50
2023-03-21T21:46:31.239Z,10.60
2023-03-21T21:48:59.726Z,10.50
2023-03-21T21:51:37.575Z,10.60
2023-03-21T21:54:09.166Z,10.50
2023-03-21T21:56:38.051Z,10.50
2023-03-21T21:59:05.906Z,10.50
2023-03-21T22:01:38.648Z,10.50
2023-03-21T22:04:08.163Z,10.50
2023-03-21T22:06:34.970Z,10.50
2023-03-21T22:09:05.015Z,10.50
2023-03-21T22:11:33.168Z,10.50
2023-03-21T22:14:00.086Z,10.50
2023-03-21T22:16:26.911Z,10.50
2023-03-21T22:18:53.747Z,10.50
2023-03-21T22:21:24.138Z,10.40
2023-03-21T22:23:50.903Z,10.50
2023-03-21T22:26:20.050Z,10.40
2023-03-21T22:28:49.681Z,10.50
2023-03-21T22:31:16.931Z,10.50
2023-03-21T22:33:46.084Z,10.50
2023-03-21T22:39:22.155Z,10.40
2023-03-21T22:41:48.980Z,10.40
2023-03-21T22:44:17.628Z,10.40
2023-03-21T22:46:44.435Z,10.30
2023-03-21T22:49:11.203Z,10.30
2023-03-21T22:51:46.464Z,10.30
2023-03-21T22:54:13.222Z,10.30
2023-03-21T22:56:40.333Z,10.20
2023-03-21T22:59:07.198Z,10.20
2023-03-21T23:01:34.015Z,10.20
2023-03-21T23:04:01.056Z,10.20
2023-03-21T23:06:27.948Z,10.10
2023-03-21T23:08:54.718Z,10.10
2023-03-21T23:11:21.566Z,10.10
2023-03-21T23:13:58.690Z,10.10
2023-03-21T23:16:32.243Z,10.10
2023-03-21T23:18:58.976Z,10.00
2023-03-21T23:21:25.737Z,10.00
2023-03-21T23:23:52.978Z,10.00
2023-03-21T23:26:20.977Z,10.00
2023-03-21T23:28:48.187Z,10.00
2023-03-21T23:31:19.415Z,10.00
2023-03-21T23:33:46.605Z,9.90
2023-03-21T23:36:13.976Z,9.90
2023-03-21T23:38:41.101Z,9.90
2023-03-21T23:41:12.651Z,9.90
2023-03-21T23:43:39.487Z,9.90
2023-03-21T23:46:06.508Z,9.80
2023-03-21T23:48:33.379Z,9.80
2023-03-21T23:51:02.315Z,9.80
2023-03-21T23:53:29.470Z,9.80
2023-03-21T23:55:58.417Z,9.80
2023-03-21T23:58:26.561Z,9.80
